createdAt,value
2017-10-20T00:00:33.224Z,0
2017-10-20T00:01:35.726Z,0
2017-10-20T00:02:37.980Z,0
2017-10-20T00:03:39.912Z,0
2017-10-20T00:04:41.553Z,0
2017-10-20T00:05:43.211Z,0
2017-10-20T00:06:44.746Z,0
2017-10-20T00:07:46.304Z,0
2017-10-20T00:08:47.705Z,0
2017-10-20T00:09:49.433Z,0
2017-10-20T00:10:52.665Z,0
2017-10-20T00:11:54.222Z,0
2017-10-20T00:12:55.858Z,0
2017-10-20T00:13:57.612Z,0
2017-10-20T00:14:59.308Z,0
2017-10-20T00:16:00.771Z,0
2017-10-20T00:17:02.462Z,0
2017-10-20T00:18:04.368Z,0
2017-10-20T00:19:05.777Z,0
2017-10-20T00:20:07.185Z,0
2017-10-20T00:21:08.584Z,0
2017-10-20T00:22:10.003Z,0
2017-10-20T00:23:11.736Z,0
2017-10-20T00:24:13.326Z,0
2017-10-20T00:25:14.733Z,0
2017-10-20T00:26:56.175Z,0
2017-10-20T00:27:57.571Z,0
2017-10-20T00:28:58.966Z,0
2017-10-20T00:30:00.413Z,0
2017-10-20T00:31:02.041Z,0
2017-10-20T00:32:03.641Z,0
2017-10-20T00:33:05.089Z,0
2017-10-20T00:34:06.482Z,0
2017-10-20T00:35:07.958Z,0
2017-10-20T00:36:09.361Z,0
2017-10-20T00:37:10.755Z,0
2017-10-20T00:38:12.147Z,0
2017-10-20T00:39:13.551Z,0
2017-10-20T00:40:14.950Z,0
2017-10-20T00:41:16.347Z,0
2017-10-20T00:42:17.752Z,0
2017-10-20T00:43:19.147Z,0
2017-10-20T00:44:20.544Z,0
2017-10-20T00:45:21.942Z,0
2017-10-20T00:46:23.347Z,0
2017-10-20T00:47:24.746Z,0
2017-10-20T00:48:26.142Z,0
2017-10-20T00:49:27.540Z,0
2017-10-20T00:50:28.938Z,0
2017-10-20T00:51:30.334Z,0
2017-10-20T00:52:31.737Z,0
2017-10-20T00:53:33.134Z,0
2017-10-20T00:54:34.535Z,0
2017-10-20T00:55:35.932Z,0
2017-10-20T00:56:37.337Z,0
2017-10-20T00:57:38.732Z,0
2017-10-20T00:58:40.131Z,0
2017-10-20T00:59:41.529Z,0
2017-10-20T01:00:42.926Z,0
2017-10-20T01:01:44.325Z,0
2017-10-20T01:02:45.724Z,0
2017-10-20T01:03:47.117Z,0
2017-10-20T01:04:48.519Z,0
2017-10-20T01:05:49.916Z,0
2017-10-20T01:06:51.321Z,0
2017-10-20T01:07:52.726Z,0
2017-10-20T01:08:54.126Z,0
2017-10-20T01:09:55.524Z,0
2017-10-20T01:10:56.916Z,0
2017-10-20T01:11:58.323Z,0
2017-10-20T01:12:59.717Z,0
2017-10-20T01:14:01.120Z,0
2017-10-20T01:15:02.511Z,0
2017-10-20T01:16:03.924Z,0
2017-10-20T01:17:05.319Z,0
2017-10-20T01:18:06.718Z,0
2017-10-20T01:19:08.121Z,0
2017-10-20T01:20:09.521Z,0
2017-10-20T01:21:10.918Z,0
2017-10-20T01:22:12.324Z,0
2017-10-20T01:23:13.716Z,0
2017-10-20T01:24:15.120Z,0
2017-10-20T01:25:16.513Z,0
2017-10-20T01:26:17.924Z,0
2017-10-20T01:27:19.321Z,0
2017-10-20T01:28:20.718Z,0
2017-10-20T01:29:22.114Z,0
2017-10-20T01:30:23.513Z,0
2017-10-20T01:31:24.914Z,0
2017-10-20T01:32:26.325Z,0
2017-10-20T01:33:27.709Z,0
2017-10-20T01:34:29.104Z,0
2017-10-20T01:35:30.501Z,0
2017-10-20T01:36:31.899Z,0
2017-10-20T01:37:33.297Z,0
2017-10-20T01:38:34.695Z,0
2017-10-20T01:39:36.090Z,0
2017-10-20T01:40:37.489Z,0
2017-10-20T01:41:38.884Z,0
2017-10-20T01:42:40.287Z,0
2017-10-20T01:43:41.680Z,0
2017-10-20T01:44:43.088Z,0
2017-10-20T01:45:44.479Z,0
2017-10-20T01:46:45.879Z,0
2017-10-20T01:47:47.273Z,0
2017-10-20T01:48:48.668Z,0
2017-10-20T01:49:50.092Z,0
2017-10-20T01:50:51.490Z,0
2017-10-20T01:51:52.890Z,0
2017-10-20T01:52:54.287Z,0
2017-10-20T01:53:55.676Z,0
2017-10-20T01:54:57.094Z,0
2017-10-20T01:55:58.483Z,0
2017-10-20T01:56:59.880Z,0
2017-10-20T01:58:01.280Z,0
2017-10-20T01:59:02.687Z,0
2017-10-20T02:00:04.085Z,0
2017-10-20T02:01:05.492Z,0
2017-10-20T02:02:06.886Z,0
2017-10-20T02:03:08.304Z,0
2017-10-20T02:04:09.707Z,0
2017-10-20T02:05:11.107Z,0
2017-10-20T02:06:12.510Z,0
2017-10-20T02:07:13.903Z,0
2017-10-20T02:08:15.298Z,0
2017-10-20T02:09:16.692Z,0
2017-10-20T02:10:18.091Z,0
2017-10-20T02:11:19.491Z,0
2017-10-20T02:12:20.885Z,0
2017-10-20T02:13:22.280Z,0
2017-10-20T02:14:23.681Z,0
2017-10-20T02:15:25.078Z,0
2017-10-20T02:16:26.504Z,0
2017-10-20T02:17:27.897Z,0
2017-10-20T02:18:29.298Z,0
2017-10-20T02:19:30.695Z,0
2017-10-20T02:20:32.094Z,0
2017-10-20T02:21:33.502Z,0
2017-10-20T02:22:34.960Z,0
2017-10-20T02:23:36.359Z,0
2017-10-20T02:24:37.757Z,0
2017-10-20T02:25:39.154Z,0
2017-10-20T02:26:40.555Z,0
2017-10-20T02:27:41.958Z,0
2017-10-20T02:28:43.350Z,0
2017-10-20T02:29:44.743Z,0
2017-10-20T02:30:46.140Z,0
2017-10-20T02:31:47.538Z,0
2017-10-20T02:32:48.943Z,0
2017-10-20T02:33:50.338Z,0
2017-10-20T02:34:51.739Z,0
2017-10-20T02:35:53.138Z,0
2017-10-20T02:36:54.539Z,0
2017-10-20T02:37:55.930Z,0
2017-10-20T02:38:57.324Z,0
2017-10-20T02:39:58.735Z,0
2017-10-20T02:41:00.134Z,0
2017-10-20T02:42:01.530Z,0
2017-10-20T02:43:02.923Z,0
2017-10-20T02:44:04.322Z,0
2017-10-20T02:45:05.717Z,0
2017-10-20T02:46:07.117Z,0
2017-10-20T02:47:08.514Z,0
2017-10-20T02:48:09.936Z,0
2017-10-20T02:49:11.358Z,0
2017-10-20T02:50:12.758Z,0
2017-10-20T02:51:14.151Z,0
2017-10-20T02:52:15.552Z,0
2017-10-20T02:53:16.971Z,0
2017-10-20T02:54:18.374Z,0
2017-10-20T02:55:19.773Z,0
2017-10-20T02:56:21.196Z,0
2017-10-20T02:57:22.595Z,0
2017-10-20T02:58:23.991Z,0
2017-10-20T02:59:25.386Z,0
2017-10-20T03:00:26.784Z,0
2017-10-20T03:01:28.180Z,0
2017-10-20T03:02:29.576Z,0
2017-10-20T03:03:31.031Z,0
2017-10-20T03:04:32.429Z,0
2017-10-20T03:05:33.822Z,0
2017-10-20T03:06:35.216Z,0
2017-10-20T03:07:36.614Z,0
2017-10-20T03:08:38.013Z,0
2017-10-20T03:09:39.408Z,0
2017-10-20T03:10:40.807Z,0
2017-10-20T03:11:42.205Z,0
2017-10-20T03:12:43.603Z,0
2017-10-20T03:13:44.999Z,0
2017-10-20T03:14:46.400Z,0
2017-10-20T03:15:47.797Z,0
2017-10-20T03:16:49.195Z,0
2017-10-20T03:17:50.586Z,0
2017-10-20T03:18:51.983Z,0
2017-10-20T03:19:53.378Z,0
2017-10-20T03:20:54.781Z,0
2017-10-20T03:21:56.179Z,0
2017-10-20T03:22:57.576Z,0
2017-10-20T03:23:58.975Z,0
2017-10-20T03:25:00.396Z,0
2017-10-20T03:26:01.795Z,0
2017-10-20T03:27:03.188Z,0
2017-10-20T03:28:04.586Z,0
2017-10-20T03:29:05.979Z,0
2017-10-20T03:30:07.401Z,0
2017-10-20T03:31:08.828Z,0
2017-10-20T03:32:10.248Z,0
2017-10-20T03:33:11.649Z,0
2017-10-20T03:34:13.046Z,0
2017-10-20T03:35:14.492Z,0
2017-10-20T03:36:15.913Z,0
2017-10-20T03:37:17.304Z,0
2017-10-20T03:38:18.706Z,0
2017-10-20T03:39:20.105Z,0
2017-10-20T03:40:21.504Z,0
2017-10-20T03:41:27.452Z,0
2017-10-20T03:42:28.660Z,0
2017-10-20T03:43:30.052Z,0
2017-10-20T03:44:31.447Z,0
2017-10-20T03:45:32.853Z,0
2017-10-20T03:46:34.252Z,0
2017-10-20T03:47:35.649Z,0
2017-10-20T03:48:37.049Z,0
2017-10-20T03:49:38.439Z,0
2017-10-20T03:50:39.842Z,0
2017-10-20T03:51:41.244Z,0
2017-10-20T03:52:42.644Z,0
2017-10-20T03:53:44.043Z,0
2017-10-20T03:54:45.439Z,0
2017-10-20T03:55:46.839Z,0
2017-10-20T03:56:48.233Z,0
2017-10-20T03:57:49.627Z,0
2017-10-20T03:58:51.088Z,0
2017-10-20T03:59:52.681Z,0
2017-10-20T04:00:54.128Z,0
2017-10-20T04:01:55.536Z,0
2017-10-20T04:02:56.925Z,0
2017-10-20T04:03:58.349Z,0
2017-10-20T04:04:59.815Z,0
2017-10-20T04:06:01.235Z,0
2017-10-20T04:07:02.630Z,0
2017-10-20T04:08:04.032Z,0
2017-10-20T04:09:05.430Z,0
2017-10-20T04:10:06.826Z,0
2017-10-20T04:11:08.229Z,0
2017-10-20T04:12:09.629Z,0
2017-10-20T04:13:11.025Z,0
2017-10-20T04:14:12.425Z,0
2017-10-20T04:15:13.829Z,0
2017-10-20T04:16:15.227Z,0
2017-10-20T04:17:16.622Z,0
2017-10-20T04:18:18.022Z,0
2017-10-20T04:19:19.415Z,0
2017-10-20T04:20:20.812Z,0
2017-10-20T04:21:22.206Z,0
2017-10-20T04:22:23.638Z,0
2017-10-20T04:23:25.196Z,0
2017-10-20T04:24:26.597Z,0
2017-10-20T04:25:27.996Z,0
2017-10-20T04:26:29.391Z,0
2017-10-20T04:27:30.794Z,0
2017-10-20T04:28:32.189Z,0
2017-10-20T04:29:33.594Z,0
2017-10-20T04:30:34.986Z,0
2017-10-20T04:31:36.384Z,0
2017-10-20T04:32:37.780Z,0
2017-10-20T04:33:39.175Z,0
2017-10-20T04:34:40.578Z,0
2017-10-20T04:35:41.977Z,0
2017-10-20T04:36:43.377Z,0
2017-10-20T04:37:44.772Z,0
2017-10-20T04:38:46.172Z,0
2017-10-20T04:39:47.567Z,0
2017-10-20T04:40:48.990Z,0
2017-10-20T04:41:50.390Z,0
2017-10-20T04:42:51.794Z,0
2017-10-20T04:43:53.191Z,0
2017-10-20T04:44:54.599Z,0
2017-10-20T04:45:55.997Z,0
2017-10-20T04:46:57.403Z,0
2017-10-20T04:47:58.789Z,0
2017-10-20T04:49:00.209Z,0
2017-10-20T04:50:01.604Z,0
2017-10-20T04:51:02.999Z,0
2017-10-20T04:52:04.405Z,0
2017-10-20T04:53:05.803Z,0
2017-10-20T04:54:07.237Z,0
2017-10-20T04:55:08.612Z,0
2017-10-20T04:56:10.017Z,0
2017-10-20T04:57:11.410Z,0
2017-10-20T04:58:12.810Z,0
2017-10-20T04:59:14.209Z,0
2017-10-20T05:00:15.605Z,0
2017-10-20T05:01:17.016Z,0
2017-10-20T05:02:18.414Z,0
2017-10-20T05:03:19.815Z,0
2017-10-20T05:04:21.213Z,0
2017-10-20T05:05:22.613Z,0
2017-10-20T05:06:24.020Z,0
2017-10-20T05:07:25.411Z,0
2017-10-20T05:08:26.811Z,0
2017-10-20T05:09:28.207Z,0
2017-10-20T05:10:29.611Z,0
2017-10-20T05:11:31.007Z,0
2017-10-20T05:12:32.413Z,0
2017-10-20T05:13:33.825Z,0
2017-10-20T05:14:35.221Z,0
2017-10-20T05:15:36.614Z,0
2017-10-20T05:16:38.016Z,4
2017-10-20T05:17:39.411Z,0
2017-10-20T05:18:40.811Z,0
2017-10-20T05:19:42.210Z,0
2017-10-20T05:20:43.609Z,4
2017-10-20T05:21:45.008Z,0
2017-10-20T05:22:46.410Z,4
2017-10-20T05:23:47.802Z,4
2017-10-20T05:24:49.205Z,4
2017-10-20T05:25:50.605Z,4
2017-10-20T05:26:52.002Z,4
2017-10-20T05:27:53.409Z,4
2017-10-20T05:28:54.802Z,8
2017-10-20T05:29:56.207Z,8
2017-10-20T05:30:57.604Z,8
2017-10-20T05:31:59.004Z,8
2017-10-20T05:33:00.400Z,12
2017-10-20T05:34:01.798Z,12
2017-10-20T05:35:03.214Z,16
2017-10-20T05:36:04.610Z,16
2017-10-20T05:37:06.007Z,16
2017-10-20T05:38:07.420Z,20
2017-10-20T05:39:08.820Z,24
2017-10-20T05:40:10.220Z,28
2017-10-20T05:41:11.619Z,32
2017-10-20T05:42:13.018Z,40
2017-10-20T05:43:14.415Z,44
2017-10-20T05:44:15.812Z,52
2017-10-20T05:45:17.216Z,60
2017-10-20T05:46:18.615Z,64
2017-10-20T05:47:20.011Z,72
2017-10-20T05:48:21.409Z,72
2017-10-20T05:49:22.815Z,72
2017-10-20T05:50:24.209Z,76
2017-10-20T05:51:25.610Z,76
2017-10-20T05:52:27.014Z,80
2017-10-20T05:53:28.459Z,84
2017-10-20T05:54:29.837Z,88
2017-10-20T05:55:31.256Z,92
2017-10-20T05:56:32.651Z,104
2017-10-20T05:57:34.053Z,120
2017-10-20T05:58:35.456Z,136
2017-10-20T05:59:36.861Z,156
2017-10-20T06:00:38.259Z,176
2017-10-20T06:01:39.664Z,192
2017-10-20T06:02:41.065Z,208
2017-10-20T06:03:42.464Z,224
2017-10-20T06:04:43.858Z,240
2017-10-20T06:05:45.261Z,260
2017-10-20T06:06:46.683Z,288
2017-10-20T06:07:48.082Z,316
2017-10-20T06:08:49.486Z,348
2017-10-20T06:09:50.979Z,388
2017-10-20T06:10:52.379Z,424
2017-10-20T06:11:53.780Z,456
2017-10-20T06:12:55.180Z,484
2017-10-20T06:13:56.604Z,508
2017-10-20T06:14:58.013Z,528
2017-10-20T06:15:59.434Z,548
2017-10-20T06:17:00.836Z,572
2017-10-20T06:18:02.244Z,596
2017-10-20T06:19:03.648Z,620
2017-10-20T06:20:05.072Z,632
2017-10-20T06:21:06.488Z,644
2017-10-20T06:22:07.899Z,644
2017-10-20T06:23:09.306Z,640
2017-10-20T06:24:10.717Z,640
2017-10-20T06:25:12.114Z,640
2017-10-20T06:26:13.536Z,648
2017-10-20T06:27:15.115Z,664
2017-10-20T06:28:16.496Z,700
2017-10-20T06:29:17.914Z,728
2017-10-20T06:30:19.355Z,760
2017-10-20T06:31:20.768Z,792
2017-10-20T06:32:22.185Z,828
2017-10-20T06:33:23.869Z,860
2017-10-20T06:34:26.604Z,888
2017-10-20T06:35:28.071Z,916
2017-10-20T06:36:29.547Z,944
2017-10-20T06:37:31.050Z,976
2017-10-20T06:38:34.640Z,1000
2017-10-20T06:39:36.042Z,1020
2017-10-20T06:40:37.871Z,1036
2017-10-20T06:41:39.374Z,1048
2017-10-20T06:42:43.366Z,1068
2017-10-20T06:43:44.859Z,1088
2017-10-20T06:44:46.359Z,1104
2017-10-20T06:45:47.863Z,1108
2017-10-20T06:46:49.475Z,1104
2017-10-20T06:47:51.052Z,1084
2017-10-20T06:48:52.668Z,1052
2017-10-20T06:49:54.197Z,1020
2017-10-20T06:50:55.899Z,996
2017-10-20T06:51:57.465Z,988
2017-10-20T06:52:58.988Z,1008
2017-10-20T06:54:00.552Z,1060
2017-10-20T06:55:02.011Z,1124
2017-10-20T06:56:03.538Z,1200
2017-10-20T06:57:05.015Z,1272
2017-10-20T06:58:06.524Z,1360
2017-10-20T06:59:08.014Z,1444
2017-10-20T07:00:09.491Z,1544
2017-10-20T07:01:10.973Z,1656
2017-10-20T07:02:12.431Z,1776
2017-10-20T07:03:13.954Z,1920
2017-10-20T07:04:15.428Z,2108
2017-10-20T07:05:16.919Z,2308
2017-10-20T07:06:18.373Z,2488
2017-10-20T07:07:19.963Z,2584
2017-10-20T07:08:21.448Z,2524
2017-10-20T07:09:22.962Z,2384
2017-10-20T07:10:24.442Z,2236
2017-10-20T07:11:25.942Z,2076
2017-10-20T07:12:27.393Z,1976
2017-10-20T07:13:28.852Z,1932
2017-10-20T07:14:30.287Z,1952
2017-10-20T07:15:31.704Z,2024
2017-10-20T07:16:33.135Z,2160
2017-10-20T07:17:34.824Z,2280
2017-10-20T07:18:36.540Z,2348
2017-10-20T07:19:37.969Z,2396
2017-10-20T07:20:39.448Z,2464
2017-10-20T07:21:40.728Z,2556
2017-10-20T07:22:42.139Z,2696
2017-10-20T07:23:43.548Z,2852
2017-10-20T07:24:45.194Z,2908
2017-10-20T07:25:46.683Z,2832
2017-10-20T07:26:48.092Z,2784
2017-10-20T07:27:49.502Z,2760
2017-10-20T07:28:50.963Z,2760
2017-10-20T07:29:52.381Z,2728
2017-10-20T07:30:53.825Z,2716
2017-10-20T07:31:55.327Z,2700
2017-10-20T07:32:56.746Z,2684
2017-10-20T07:33:58.324Z,2716
2017-10-20T07:34:59.998Z,2772
2017-10-20T07:36:02.310Z,2808
2017-10-20T07:37:03.749Z,2824
2017-10-20T07:38:05.241Z,2816
2017-10-20T07:39:06.718Z,2808
2017-10-20T07:40:08.316Z,2692
2017-10-20T07:41:09.812Z,2616
2017-10-20T07:42:11.260Z,2600
2017-10-20T07:43:12.691Z,2616
2017-10-20T07:44:14.168Z,2660
2017-10-20T07:45:15.621Z,2744
2017-10-20T07:46:17.599Z,2916
2017-10-20T07:47:19.026Z,2968
2017-10-20T07:48:20.451Z,2956
2017-10-20T07:49:21.849Z,2952
2017-10-20T07:50:23.253Z,2960
2017-10-20T07:51:24.684Z,2804
2017-10-20T07:52:26.132Z,2796
2017-10-20T07:53:27.609Z,2636
2017-10-20T07:54:29.033Z,2596
2017-10-20T07:55:30.444Z,2524
2017-10-20T07:56:32.412Z,2508
2017-10-20T07:57:33.822Z,2572
2017-10-20T07:58:35.297Z,2676
2017-10-20T07:59:36.812Z,2740
2017-10-20T08:00:38.362Z,2732
2017-10-20T08:01:39.778Z,2664
2017-10-20T08:02:42.112Z,2544
2017-10-20T08:03:43.552Z,2440
2017-10-20T08:04:44.990Z,2392
2017-10-20T08:05:46.520Z,2356
2017-10-20T08:06:47.931Z,2260
2017-10-20T08:07:49.340Z,2220
2017-10-20T08:08:50.746Z,2216
2017-10-20T08:09:52.170Z,2220
2017-10-20T08:10:53.586Z,2244
2017-10-20T08:11:55.013Z,2276
2017-10-20T08:12:56.444Z,2372
2017-10-20T08:13:57.863Z,2472
2017-10-20T08:14:59.306Z,2580
2017-10-20T08:16:00.743Z,2692
2017-10-20T08:17:02.193Z,2880
2017-10-20T08:18:03.617Z,3052
2017-10-20T08:19:05.076Z,3180
2017-10-20T08:20:06.554Z,3364
2017-10-20T08:21:07.972Z,3548
2017-10-20T08:22:09.475Z,3660
2017-10-20T08:23:10.878Z,3780
2017-10-20T08:24:12.291Z,3880
2017-10-20T08:25:13.747Z,3928
2017-10-20T08:26:15.181Z,4008
2017-10-20T08:27:16.614Z,3980
2017-10-20T08:28:18.066Z,4116
2017-10-20T08:29:19.552Z,3976
2017-10-20T08:30:21.008Z,3996
2017-10-20T08:31:22.426Z,4088
2017-10-20T08:32:23.884Z,4248
2017-10-20T08:33:25.352Z,4396
2017-10-20T08:34:26.798Z,4276
2017-10-20T08:35:28.223Z,4128
2017-10-20T08:36:29.655Z,4032
2017-10-20T08:37:31.115Z,4004
2017-10-20T08:38:32.529Z,3940
2017-10-20T08:39:34.020Z,3868
2017-10-20T08:40:35.673Z,3804
2017-10-20T08:41:37.365Z,3756
2017-10-20T08:42:39.007Z,3412
2017-10-20T08:43:40.669Z,3292
2017-10-20T08:44:42.274Z,3268
2017-10-20T08:45:43.979Z,3236
2017-10-20T08:46:45.636Z,3240
2017-10-20T08:47:47.356Z,3248
2017-10-20T08:48:48.893Z,3244
2017-10-20T08:49:50.452Z,3232
2017-10-20T08:50:52.081Z,3228
2017-10-20T08:51:53.737Z,3272
2017-10-20T08:52:55.337Z,3372
2017-10-20T08:53:57.043Z,3504
2017-10-20T08:54:58.639Z,3676
2017-10-20T08:56:00.308Z,3880
2017-10-20T08:57:02.021Z,4068
2017-10-20T08:58:03.776Z,4288
2017-10-20T08:59:05.242Z,4504
2017-10-20T09:00:06.951Z,4780
2017-10-20T09:01:08.356Z,5092
2017-10-20T09:02:09.906Z,5608
2017-10-20T09:03:11.681Z,6132
2017-10-20T09:04:13.165Z,6332
2017-10-20T09:05:14.609Z,6360
2017-10-20T09:06:16.627Z,6676
2017-10-20T09:07:18.032Z,6700
2017-10-20T09:08:19.451Z,6600
2017-10-20T09:09:20.905Z,6808
2017-10-20T09:10:22.333Z,6704
2017-10-20T09:11:23.778Z,6724
2017-10-20T09:12:25.178Z,6692
2017-10-20T09:13:26.722Z,6652
2017-10-20T09:14:28.297Z,6648
2017-10-20T09:15:29.897Z,6696
2017-10-20T09:16:31.643Z,6712
2017-10-20T09:17:33.514Z,6640
2017-10-20T09:18:34.936Z,6512
2017-10-20T09:19:36.573Z,6364
2017-10-20T09:20:38.107Z,6344
2017-10-20T09:21:39.562Z,6492
2017-10-20T09:22:41.042Z,6864
2017-10-20T09:23:42.492Z,7404
2017-10-20T09:24:43.944Z,7844
2017-10-20T09:25:45.568Z,9392
2017-10-20T09:26:47.980Z,10556
2017-10-20T09:27:49.588Z,9100
2017-10-20T09:28:51.033Z,7680
2017-10-20T09:29:52.524Z,5672
2017-10-20T09:30:53.988Z,5116
2017-10-20T09:31:55.434Z,4672
2017-10-20T09:32:56.883Z,4364
2017-10-20T09:33:58.313Z,4124
2017-10-20T09:34:59.763Z,3988
2017-10-20T09:36:01.219Z,3928
2017-10-20T09:37:02.758Z,3896
2017-10-20T09:38:04.142Z,3884
2017-10-20T09:39:05.684Z,3840
2017-10-20T09:40:07.421Z,3776
2017-10-20T09:41:08.894Z,3732
2017-10-20T09:42:10.304Z,3724
2017-10-20T09:43:11.716Z,3688
2017-10-20T09:44:13.124Z,3620
2017-10-20T09:45:14.533Z,3568
2017-10-20T09:46:15.937Z,3488
2017-10-20T09:47:17.383Z,3396
2017-10-20T09:48:18.792Z,3324
2017-10-20T09:49:20.211Z,3260
2017-10-20T09:50:21.622Z,3172
2017-10-20T09:51:23.041Z,3104
2017-10-20T09:52:24.509Z,3080
2017-10-20T09:53:25.973Z,3108
2017-10-20T09:54:27.382Z,3164
2017-10-20T09:55:28.788Z,3220
2017-10-20T09:56:30.207Z,3252
2017-10-20T09:57:31.654Z,3292
2017-10-20T09:58:33.056Z,3380
2017-10-20T09:59:34.494Z,3500
2017-10-20T10:00:35.921Z,3608
2017-10-20T10:01:37.385Z,3688
2017-10-20T10:02:38.792Z,3760
2017-10-20T10:03:41.336Z,3828
2017-10-20T10:04:42.840Z,3812
2017-10-20T10:05:44.261Z,3700
2017-10-20T10:06:45.671Z,3540
2017-10-20T10:07:47.083Z,3408
2017-10-20T10:08:49.035Z,3272
2017-10-20T10:09:50.445Z,3140
2017-10-20T10:10:51.855Z,3060
2017-10-20T10:11:53.269Z,3108
2017-10-20T10:12:54.687Z,3188
2017-10-20T10:13:56.093Z,3260
2017-10-20T10:14:57.540Z,3324
2017-10-20T10:15:58.997Z,3320
2017-10-20T10:17:00.437Z,3280
2017-10-20T10:18:02.047Z,3236
2017-10-20T10:19:03.402Z,3152
2017-10-20T10:20:06.270Z,3092
2017-10-20T10:21:07.690Z,3088
2017-10-20T10:22:09.109Z,3152
2017-10-20T10:23:11.510Z,3136
2017-10-20T10:24:13.306Z,3048
2017-10-20T10:25:14.719Z,2928
2017-10-20T10:26:16.152Z,2836
2017-10-20T10:27:17.577Z,2732
2017-10-20T10:28:18.992Z,2596
2017-10-20T10:29:20.622Z,2432
2017-10-20T10:30:22.099Z,2300
2017-10-20T10:31:23.672Z,2192
2017-10-20T10:32:25.134Z,2112
2017-10-20T10:33:26.557Z,2048
2017-10-20T10:34:28.028Z,1992
2017-10-20T10:35:29.447Z,1940
2017-10-20T10:36:30.978Z,1904
2017-10-20T10:37:33.372Z,1884
2017-10-20T10:38:34.746Z,1852
2017-10-20T10:39:36.232Z,1828
2017-10-20T10:40:37.736Z,1816
2017-10-20T10:41:39.271Z,1824
2017-10-20T10:42:40.878Z,1836
2017-10-20T10:43:42.303Z,1892
2017-10-20T10:44:43.740Z,1976
2017-10-20T10:45:45.220Z,2064
2017-10-20T10:46:46.665Z,2156
2017-10-20T10:47:48.082Z,2236
2017-10-20T10:48:51.183Z,2300
2017-10-20T10:49:53.963Z,2392
2017-10-20T10:50:56.618Z,2508
2017-10-20T10:51:58.992Z,2644
2017-10-20T10:53:00.985Z,2772
2017-10-20T10:54:02.475Z,2864
2017-10-20T10:55:04.007Z,2936
2017-10-20T10:56:05.570Z,2996
2017-10-20T10:57:07.402Z,3076
2017-10-20T10:58:08.963Z,3148
2017-10-20T10:59:10.404Z,3196
2017-10-20T11:00:11.948Z,3260
2017-10-20T11:01:13.441Z,3324
2017-10-20T11:02:15.720Z,3360
2017-10-20T11:03:17.181Z,3424
2017-10-20T11:04:18.597Z,3528
2017-10-20T11:05:20.043Z,3636
2017-10-20T11:06:21.499Z,3752
2017-10-20T11:07:23.396Z,3836
2017-10-20T11:08:25.692Z,3944
2017-10-20T11:09:27.779Z,4044
2017-10-20T11:10:30.597Z,4036
2017-10-20T11:11:32.036Z,3948
2017-10-20T11:12:33.555Z,3772
2017-10-20T11:13:35.940Z,3580
2017-10-20T11:14:38.950Z,3340
2017-10-20T11:15:40.364Z,3128
2017-10-20T11:16:42.841Z,2992
2017-10-20T11:17:44.186Z,2972
2017-10-20T11:18:46.189Z,3040
2017-10-20T11:19:49.432Z,3168
2017-10-20T11:20:51.303Z,3368
2017-10-20T11:21:52.749Z,3512
2017-10-20T11:22:54.220Z,3536
2017-10-20T11:23:55.657Z,3624
2017-10-20T11:24:57.100Z,3660
2017-10-20T11:25:58.540Z,3784
2017-10-20T11:26:59.992Z,4088
2017-10-20T11:28:01.412Z,4268
2017-10-20T11:29:02.840Z,4020
2017-10-20T11:30:04.311Z,3664
2017-10-20T11:31:05.735Z,3396
2017-10-20T11:32:07.234Z,3352
2017-10-20T11:33:08.726Z,3664
2017-10-20T11:34:10.178Z,4296
2017-10-20T11:35:11.607Z,4800
2017-10-20T11:36:13.074Z,5088
2017-10-20T11:37:14.481Z,4924
2017-10-20T11:38:15.911Z,4592
2017-10-20T11:39:17.335Z,4492
2017-10-20T11:40:18.789Z,4316
2017-10-20T11:41:20.218Z,3872
2017-10-20T11:42:21.656Z,3496
2017-10-20T11:43:23.092Z,3336
2017-10-20T11:44:24.510Z,3400
2017-10-20T11:45:25.937Z,3524
2017-10-20T11:46:27.394Z,3512
2017-10-20T11:47:28.819Z,3464
2017-10-20T11:48:30.243Z,3504
2017-10-20T11:49:31.656Z,3708
2017-10-20T11:50:33.087Z,4116
2017-10-20T11:51:34.521Z,4656
2017-10-20T11:52:36.063Z,5268
2017-10-20T11:53:37.480Z,5892
2017-10-20T11:54:38.944Z,6156
2017-10-20T11:55:40.352Z,6396
2017-10-20T11:56:41.776Z,6848
2017-10-20T11:57:43.201Z,7072
2017-10-20T11:58:44.640Z,6800
2017-10-20T11:59:46.065Z,6172
2017-10-20T12:00:47.473Z,5532
2017-10-20T12:01:48.887Z,5364
2017-10-20T12:02:50.299Z,5792
2017-10-20T12:03:51.703Z,6332
2017-10-20T12:04:53.116Z,6376
2017-10-20T12:05:54.524Z,6248
2017-10-20T12:06:55.932Z,6412
2017-10-20T12:07:57.341Z,6064
2017-10-20T12:08:58.757Z,5176
2017-10-20T12:10:00.170Z,4508
2017-10-20T12:11:01.573Z,4556
2017-10-20T12:12:02.997Z,4676
2017-10-20T12:13:04.407Z,4304
2017-10-20T12:14:05.816Z,3900
2017-10-20T12:15:07.228Z,3736
2017-10-20T12:16:08.636Z,3592
2017-10-20T12:17:10.052Z,3728
2017-10-20T12:18:11.469Z,3976
2017-10-20T12:19:12.872Z,4328
2017-10-20T12:20:14.279Z,4508
2017-10-20T12:21:15.709Z,4716
2017-10-20T12:22:17.117Z,5116
2017-10-20T12:23:18.524Z,5392
2017-10-20T12:24:19.935Z,5888
2017-10-20T12:25:21.342Z,6036
2017-10-20T12:26:22.748Z,5816
2017-10-20T12:27:24.148Z,5288
2017-10-20T12:28:25.562Z,4748
2017-10-20T12:29:26.967Z,4272
2017-10-20T12:30:28.387Z,3980
2017-10-20T12:31:29.791Z,3832
2017-10-20T12:32:31.201Z,3612
2017-10-20T12:33:32.606Z,3644
2017-10-20T12:34:34.014Z,3668
2017-10-20T12:35:35.422Z,3592
2017-10-20T12:36:36.827Z,3560
2017-10-20T12:37:38.240Z,3704
2017-10-20T12:38:39.648Z,3892
2017-10-20T12:39:41.045Z,3924
2017-10-20T12:40:42.465Z,3584
2017-10-20T12:41:43.869Z,3220
2017-10-20T12:42:45.272Z,3076
2017-10-20T12:43:46.680Z,3000
2017-10-20T12:44:48.091Z,2812
2017-10-20T12:45:49.503Z,2548
2017-10-20T12:46:50.907Z,2360
2017-10-20T12:47:52.308Z,2272
2017-10-20T12:48:53.720Z,2168
2017-10-20T12:49:55.129Z,2348
2017-10-20T12:50:56.596Z,2672
2017-10-20T12:51:57.951Z,3032
2017-10-20T12:52:59.362Z,3084
2017-10-20T12:54:00.772Z,2808
2017-10-20T12:55:02.179Z,2628
2017-10-20T12:56:03.626Z,2580
2017-10-20T12:57:05.032Z,2696
2017-10-20T12:58:06.438Z,2936
2017-10-20T12:59:07.845Z,3028
2017-10-20T13:00:09.257Z,3028
2017-10-20T13:01:10.664Z,2916
2017-10-20T13:02:12.069Z,2760
2017-10-20T13:03:13.474Z,2768
2017-10-20T13:04:14.888Z,2848
2017-10-20T13:05:16.331Z,2996
2017-10-20T13:06:17.748Z,3256
2017-10-20T13:07:19.158Z,3692
2017-10-20T13:08:20.566Z,4224
2017-10-20T13:09:21.975Z,4720
2017-10-20T13:10:23.381Z,4852
2017-10-20T13:11:24.792Z,5088
2017-10-20T13:12:26.199Z,7144
2017-10-20T13:13:27.612Z,7640
2017-10-20T13:14:29.018Z,7728
2017-10-20T13:15:30.431Z,20896
2017-10-20T13:16:31.848Z,8076
2017-10-20T13:17:33.260Z,8464
2017-10-20T13:18:34.665Z,10952
2017-10-20T13:19:36.076Z,8720
2017-10-20T13:20:37.491Z,8460
2017-10-20T13:21:38.906Z,7620
2017-10-20T13:22:40.344Z,7320
2017-10-20T13:23:41.762Z,6876
2017-10-20T13:24:43.169Z,13620
2017-10-20T13:25:44.583Z,5324
2017-10-20T13:26:46.380Z,4568
2017-10-20T13:27:47.797Z,4308
2017-10-20T13:28:49.234Z,4368
2017-10-20T13:29:50.681Z,4500
2017-10-20T13:30:52.133Z,4528
2017-10-20T13:31:53.563Z,4516
2017-10-20T13:32:54.967Z,4428
2017-10-20T13:33:56.405Z,4388
2017-10-20T13:34:57.855Z,4180
2017-10-20T13:35:59.343Z,4348
2017-10-20T13:37:00.752Z,4588
2017-10-20T13:38:02.163Z,4844
2017-10-20T13:39:03.569Z,4864
2017-10-20T13:40:05.050Z,4744
2017-10-20T13:41:06.471Z,4364
2017-10-20T13:42:07.916Z,4040
2017-10-20T13:43:09.321Z,3904
2017-10-20T13:44:10.733Z,3896
2017-10-20T13:45:12.141Z,3144
2017-10-20T13:46:13.622Z,2400
2017-10-20T13:47:14.994Z,2096
2017-10-20T13:48:16.403Z,1952
2017-10-20T13:49:17.815Z,2100
2017-10-20T13:50:19.228Z,2248
2017-10-20T13:51:20.631Z,2308
2017-10-20T13:52:22.206Z,2340
2017-10-20T13:53:23.763Z,2340
2017-10-20T13:54:25.387Z,2540
2017-10-20T13:55:27.088Z,2652
2017-10-20T13:56:28.711Z,2484
2017-10-20T13:57:30.354Z,2080
2017-10-20T13:58:32.084Z,1932
2017-10-20T13:59:33.673Z,1752
2017-10-20T14:00:35.242Z,1548
2017-10-20T14:01:36.920Z,1624
2017-10-20T14:02:38.367Z,1792
2017-10-20T14:03:39.775Z,2012
2017-10-20T14:04:41.187Z,2416
2017-10-20T14:05:42.596Z,2908
2017-10-20T14:06:44.000Z,2884
2017-10-20T14:07:46.033Z,2340
2017-10-20T14:08:47.434Z,1900
2017-10-20T14:09:48.844Z,1672
2017-10-20T14:10:50.254Z,1520
2017-10-20T14:11:51.705Z,1496
2017-10-20T14:12:53.129Z,1568
2017-10-20T14:13:54.541Z,1628
2017-10-20T14:14:55.947Z,1732